Time;durP1;ratioP1;P1;durP2;ratioP2;P2;SDS_P1;SDS_P2;PMS_P1;PMS_P2;Temp;Humidity;BMP_temperature;BMP_pressure;BME280_temperature;BME280_humidity;BME280_pressure;Samples;Min_cycle;Max_cycle;Signal;HPM_P1;HPM_P2
2022/11/06 00:01:08;;;;;;;15.23;9.60;;;6.20;13.40;;;;;;5068729;28;20458;-74
2022/11/06 00:03:34;;;;;;;14.00;8.97;;;6.20;15.80;;;;;;5065009;28;20476;-74
2022/11/06 00:08:49;;;;;;;19.80;9.90;;;6.30;16.40;;;;;;5071007;28;20848;-74
2022/11/06 00:11:16;;;;;;;13.73;9.20;;;6.30;12.70;;;;;;5068770;28;20469;-74
2022/11/06 00:13:42;;;;;;;13.77;8.80;;;6.20;16.30;;;;;;5063114;28;20216;-74
2022/11/06 00:16:09;;;;;;;20.00;9.43;;;6.30;14.70;;;;;;5068323;28;20422;-74
2022/11/06 00:18:36;;;;;;;17.30;9.70;;;6.20;10.00;;;;;;5070371;28;20434;-74
2022/11/06 00:21:07;;;;;;;18.07;9.57;;;6.20;12.60;;;;;;5072380;28;20451;-75
2022/11/06 00:23:33;;;;;;;14.57;9.70;;;6.20;15.10;;;;;;5067668;28;20427;-74
2022/11/06 00:25:58;;;;;;;19.50;10.30;;;6.20;12.00;;;;;;5065004;28;20597;-74
2022/11/06 00:28:24;;;;;;;16.13;10.00;;;7.60;14.30;;;;;;5071517;28;20181;-74
2022/11/06 00:30:49;;;;;;;14.23;9.27;;;6.20;10.60;;;;;;5068052;28;20173;-74
2022/11/06 00:33:15;;;;;;;15.00;9.37;;;6.10;10.40;;;;;;5069982;28;20197;-74
2022/11/06 00:35:40;;;;;;;16.13;10.57;;;6.00;7.60;;;;;;5060199;28;20192;-74
2022/11/06 00:38:06;;;;;;;19.57;10.17;;;5.90;9.10;;;;;;5066224;28;20199;-74
2022/11/06 00:40:32;;;;;;;18.87;11.57;;;5.90;11.40;;;;;;5070593;28;20192;-74
2022/11/06 00:42:57;;;;;;;26.63;11.27;;;5.80;11.20;;;;;;5064841;28;20697;-74
2022/11/06 00:45:24;;;;;;;24.57;14.37;;;5.70;13.50;;;;;;5069202;28;20405;-74
2022/11/06 00:47:50;;;;;;;19.87;14.17;;;5.70;10.90;;;;;;5068772;28;20183;-74
2022/11/06 00:50:16;;;;;;;24.43;16.80;;;5.60;15.40;;;;;;5076757;28;20550;-74
2022/11/06 00:52:42;;;;;;;20.20;12.93;;;5.50;17.00;;;;;;5067749;28;20446;-74
2022/11/06 00:55:08;;;;;;;31.27;13.40;;;5.50;17.30;;;;;;5070493;28;20865;-74
2022/11/06 00:57:33;;;;;;;16.80;11.63;;;5.50;17.90;;;;;;5062888;28;20513;-75
2022/11/06 00:59:59;;;;;;;17.13;10.00;;;5.50;15.90;;;;;;5060652;28;20200;-74
2022/11/06 01:02:24;;;;;;;16.83;11.20;;;5.50;14.60;;;;;;5065071;28;20554;-74
2022/11/06 01:04:50;;;;;;;19.37;10.67;;;5.40;16.60;;;;;;5069454;28;20177;-74
2022/11/06 01:07:16;;;;;;;15.87;10.07;;;5.30;17.80;;;;;;5066071;28;20166;-74
2022/11/06 01:09:41;;;;;;;24.77;10.23;;;5.30;19.40;;;;;;5065834;28;20260;-74
2022/11/06 01:12:07;;;;;;;20.33;11.10;;;5.40;15.10;;;;;;5063353;28;20185;-74
2022/11/06 01:14:32;;;;;;;17.50;10.40;;;5.40;16.60;;;;;;5066792;28;20172;-74
2022/11/06 01:16:58;;;;;;;17.30;10.30;;;5.40;13.90;;;;;;5074309;28;20255;-74
2022/11/06 01:19:23;;;;;;;15.70;10.57;;;5.30;12.60;;;;;;5062851;28;20230;-75
2022/11/06 01:21:51;;;;;;;17.83;11.20;;;5.20;13.80;;;;;;5069788;28;20780;-74
2022/11/06 01:24:27;;;;;;;16.73;10.33;;;5.20;14.80;;;;;;5064927;28;20189;-74
2022/11/06 01:26:54;;;;;;;17.50;11.20;;;5.10;15.40;;;;;;5069010;28;20411;-74
2022/11/06 01:29:20;;;;;;;16.87;10.67;;;5.10;17.50;;;;;;5066694;28;20755;-75
2022/11/06 01:31:48;;;;;;;16.10;10.00;;;5.10;18.20;;;;;;5067820;28;20414;-74
2022/11/06 01:34:15;;;;;;;16.27;9.90;;;5.10;16.00;;;;;;5061498;28;20211;-74
2022/11/06 01:36:40;;;;;;;20.63;11.80;;;5.10;18.80;;;;;;5067476;28;20436;-75
2022/11/06 01:39:09;;;;;;;16.20;10.67;;;5.10;18.10;;;;;;5069789;28;20417;-74
2022/11/06 01:41:39;;;;;;;14.20;10.23;;;5.10;23.10;;;;;;5066553;28;20231;-74
2022/11/06 01:44:25;;;;;;;15.57;9.90;;;5.20;21.40;;;;;;5062270;28;20527;-75
2022/11/06 01:46:51;;;;;;;21.37;10.20;;;5.10;18.70;;;;;;5066224;28;20612;-74
2022/11/06 01:49:17;;;;;;;23.63;10.57;;;5.10;19.20;;;;;;5065877;28;20438;-74
2022/11/06 01:51:51;;;;;;;14.97;9.20;;;5.10;25.40;;;;;;5064789;28;20241;-74
2022/11/06 01:54:18;;;;;;;20.33;10.00;;;4.30;22.30;;;;;;5063622;28;20919;-74
2022/11/06 01:56:47;;;;;;;18.50;10.43;;;4.30;20.80;;;;;;5065504;28;20798;-74
2022/11/06 01:59:15;;;;;;;18.13;9.70;;;5.10;28.20;;;;;;5068724;28;20510;-74
2022/11/06 02:01:41;;;;;;;21.80;10.97;;;5.00;26.80;;;;;;5057206;28;20491;-74
2022/11/06 02:04:09;;;;;;;16.50;10.20;;;5.00;23.30;;;;;;5066564;28;21037;-74
2022/11/06 02:06:35;;;;;;;16.73;10.80;;;5.10;35.10;;;;;;5069462;28;20256;-74
2022/11/06 02:09:02;;;;;;;25.53;9.77;;;5.20;35.10;;;;;;5067322;28;20905;-74
2022/11/06 02:11:28;;;;;;;16.43;9.03;;;5.20;34.80;;;;;;5065338;28;20493;-74
2022/11/06 02:14:19;;;;;;;14.43;9.50;;;5.10;26.90;;;;;;5066570;28;20462;-74
2022/11/06 02:16:51;;;;;;;17.30;9.67;;;5.10;35.00;;;;;;5044180;28;20423;-74
2022/11/06 02:19:39;;;;;;;17.97;9.23;;;6.30;35.90;;;;;;5074628;28;20793;-74
2022/11/06 02:22:26;;;;;;;20.97;9.87;;;5.30;35.10;;;;;;5058933;28;20494;-74
2022/11/06 02:25:02;;;;;;;21.00;8.80;;;5.40;35.20;;;;;;5065599;28;20427;-74
2022/11/06 02:27:29;;;;;;;18.83;8.80;;;5.50;35.30;;;;;;5059245;28;20972;-74
2022/11/06 02:30:07;;;;;;;14.93;8.87;;;5.50;35.20;;;;;;5067662;28;20439;-74
2022/11/06 02:32:52;;;;;;;16.50;9.40;;;5.60;35.30;;;;;;5062845;28;20477;-74
2022/11/06 02:35:31;;;;;;;15.40;8.83;;;5.60;35.50;;;;;;5063223;28;20430;-75
2022/11/06 02:38:02;;;;;;;17.33;8.70;;;5.60;35.40;;;;;;5065343;28;20475;-74
2022/11/06 02:40:32;;;;;;;16.87;8.50;;;5.60;31.50;;;;;;5069003;28;20549;-74
2022/11/06 02:43:01;;;;;;;15.93;8.60;;;5.50;35.30;;;;;;5055740;28;20504;-74
2022/11/06 02:45:30;;;;;;;14.30;8.40;;;5.60;35.30;;;;;;5066039;28;20437;-75
2022/11/06 02:47:57;;;;;;;11.23;8.00;;;5.60;35.40;;;;;;5055333;28;20426;-75
2022/11/06 02:50:29;;;;;;;15.63;8.47;;;5.70;35.40;;;;;;5063995;28;20437;-75
2022/11/06 02:53:06;;;;;;;15.03;8.50;;;5.70;35.40;;;;;;5061356;28;20470;-74
2022/11/06 02:55:45;;;;;;;13.57;7.70;;;5.80;35.50;;;;;;5064563;28;20426;-75
2022/11/06 02:58:29;;;;;;;16.40;8.30;;;5.70;30.50;;;;;;5067347;28;20415;-75
2022/11/06 03:01:03;;;;;;;22.40;8.53;;;5.80;35.50;;;;;;5065284;28;20592;-74
2022/11/06 03:03:38;;;;;;;12.70;7.57;;;5.80;35.10;;;;;;5070931;28;20801;-74
2022/11/06 03:06:11;;;;;;;14.03;7.70;;;5.80;35.50;;;;;;5061572;28;20428;-74
2022/11/06 03:08:45;;;;;;;14.33;8.23;;;5.90;30.00;;;;;;5071178;28;20778;-75
2022/11/06 03:11:21;;;;;;;14.70;8.63;;;5.90;29.30;;;;;;5071972;28;20756;-75
2022/11/06 03:13:56;;;;;;;13.83;7.63;;;5.90;26.40;;;;;;5059089;28;20447;-74
2022/11/06 03:16:49;;;;;;;14.63;7.63;;;5.80;27.70;;;;;;5068974;28;20515;-74
2022/11/06 03:19:17;;;;;;;15.70;8.23;;;5.80;25.30;;;;;;5078769;28;20791;-75
2022/11/06 03:22:02;;;;;;;12.20;8.20;;;5.80;25.30;;;;;;5069541;28;20519;-75
2022/11/06 03:24:47;;;;;;;17.53;8.10;;;5.70;23.70;;;;;;5071875;28;20430;-74
2022/11/06 03:27:21;;;;;;;15.47;8.27;;;5.60;23.30;;;;;;5065523;28;20784;-75
2022/11/06 03:29:51;;;;;;;13.80;8.60;;;5.50;22.10;;;;;;5069903;28;20431;-75
2022/11/06 03:32:29;;;;;;;13.40;7.93;;;5.40;19.50;;;;;;5066091;28;20398;-75
2022/11/06 03:35:26;;;;;;;14.03;7.30;;;5.40;20.60;;;;;;5070175;28;20434;-75
2022/11/06 03:38:03;;;;;;;11.30;7.93;;;5.30;18.70;;;;;;5062865;28;21016;-75
2022/11/06 03:40:35;;;;;;;15.33;8.43;;;5.30;21.30;;;;;;5069989;28;20466;-75
2022/11/06 03:43:05;;;;;;;14.20;9.13;;;5.20;20.80;;;;;;5058364;28;20490;-75
2022/11/06 03:45:32;;;;;;;13.87;8.00;;;5.10;22.30;;;;;;5070373;28;20429;-75
2022/11/06 03:48:10;;;;;;;13.33;7.80;;;5.10;22.60;;;;;;5068077;28;20820;-74
2022/11/06 03:50:48;;;;;;;14.80;8.00;;;5.00;25.50;;;;;;5071941;28;20457;-75
2022/11/06 03:53:28;;;;;;;13.00;8.37;;;5.00;26.20;;;;;;5066491;28;20460;-75
2022/11/06 03:56:00;;;;;;;12.77;8.27;;;5.00;24.70;;;;;;5069901;28;20422;-75
2022/11/06 03:58:30;;;;;;;15.17;8.30;;;4.90;22.70;;;;;;5067252;28;20445;-75
2022/11/06 04:01:02;;;;;;;15.57;8.40;;;4.90;24.20;;;;;;5070584;28;20450;-74
2022/11/06 04:03:53;;;;;;;12.90;7.50;;;4.80;24.10;;;;;;5065932;28;21142;-74
2022/11/06 04:06:41;;;;;;;14.37;7.80;;;4.80;24.10;;;;;;5065195;28;20434;-74
2022/11/06 04:14:46;;;;;;;11.80;7.87;;;4.70;25.10;;;;;;5068016;28;20476;-75
2022/11/06 04:17:14;;;;;;;14.60;8.20;;;4.70;23.10;;;;;;5066430;28;20521;-75
2022/11/06 04:19:56;;;;;;;13.10;8.00;;;4.60;24.70;;;;;;5077625;28;20861;-74
2022/11/06 04:22:37;;;;;;;12.27;7.80;;;4.70;28.60;;;;;;5061180;28;20938;-74
2022/11/06 04:28:47;;;;;;;12.07;7.93;;;4.60;22.20;;;;;;5057493;28;20433;-75
2022/11/06 04:31:47;;;;;;;12.50;7.40;;;4.60;23.30;;;;;;5064194;28;20402;-74
2022/11/06 04:34:49;;;;;;;13.53;8.10;;;4.60;22.80;;;;;;5063808;28;20854;-74
2022/11/06 04:37:24;;;;;;;12.20;7.90;;;4.50;19.60;;;;;;5063219;28;20433;-74
2022/11/06 04:40:09;;;;;;;10.10;7.10;;;4.50;22.30;;;;;;5069940;28;20448;-74
2022/11/06 04:42:42;;;;;;;11.67;7.90;;;4.50;20.90;;;;;;5056695;28;20458;-75
2022/11/06 04:45:27;;;;;;;15.10;8.53;;;4.40;19.70;;;;;;5061448;28;20427;-75
2022/11/06 04:47:53;;;;;;;11.37;7.47;;;4.30;18.90;;;;;;5069939;28;20475;-74
2022/11/06 04:50:21;;;;;;;13.20;8.20;;;4.30;19.60;;;;;;5040712;28;1086795;-75
2022/11/06 04:52:48;;;;;;;11.90;7.80;;;4.20;16.50;;;;;;5061894;28;20410;-75
2022/11/06 04:55:13;;;;;;;12.23;7.63;;;4.10;17.10;;;;;;5063348;28;20529;-73
2022/11/06 04:57:39;;;;;;;12.13;8.07;;;4.10;19.60;;;;;;5065780;28;20459;-74
2022/11/06 05:00:05;;;;;;;14.50;8.30;;;4.10;21.00;;;;;;5064536;28;20667;-76
2022/11/06 05:02:31;;;;;;;11.63;8.03;;;4.10;20.70;;;;;;5059191;28;20654;-74
2022/11/06 05:04:56;;;;;;;12.90;8.00;;;4.10;20.00;;;;;;5060991;28;20417;-75
2022/11/06 05:07:22;;;;;;;12.40;7.20;;;4.00;18.50;;;;;;5069323;28;20204;-75
2022/11/06 05:09:47;;;;;;;11.30;7.87;;;4.00;17.60;;;;;;5070349;28;20566;-75
2022/11/06 05:12:13;;;;;;;12.23;8.40;;;3.90;17.60;;;;;;5055222;28;20204;-74
2022/11/06 05:14:39;;;;;;;12.30;8.17;;;3.90;19.70;;;;;;5065420;28;20210;-75
2022/11/06 05:17:04;;;;;;;15.23;8.17;;;3.90;21.00;;;;;;5065247;28;20558;-74
2022/11/06 05:19:30;;;;;;;12.37;8.27;;;3.90;19.70;;;;;;5078402;28;20168;-74
2022/11/06 05:24:39;;;;;;;14.63;8.30;;;3.80;21.50;;;;;;5067038;28;20183;-74
2022/11/06 05:27:05;;;;;;;13.20;7.83;;;3.90;28.50;;;;;;5064923;28;20812;-74
2022/11/06 05:29:30;;;;;;;13.90;8.10;;;3.90;26.40;;;;;;5070244;28;20192;-74
2022/11/06 05:31:56;;;;;;;14.50;8.70;;;3.90;23.80;;;;;;5057793;28;20267;-74
2022/11/06 05:34:21;;;;;;;11.33;8.10;;;3.90;23.30;;;;;;5063582;28;20245;-75
2022/11/06 05:36:47;;;;;;;11.60;8.07;;;3.90;20.70;;;;;;5069837;28;20621;-74
2022/11/06 05:39:12;;;;;;;13.13;8.20;;;3.80;20.20;;;;;;5062405;28;20587;-74
2022/11/06 05:41:38;;;;;;;12.67;8.50;;;3.80;19.60;;;;;;5069082;28;20196;-75
2022/11/06 05:44:03;;;;;;;15.73;8.90;;;3.80;17.70;;;;;;5062148;28;20279;-74
2022/11/06 05:46:30;;;;;;;16.47;9.47;;;3.70;19.40;;;;;;5066892;28;20196;-74
2022/11/06 05:48:55;;;;;;;14.90;8.57;;;3.70;24.30;;;;;;5072667;28;20221;-74
2022/11/06 05:51:21;;;;;;;14.50;8.40;;;3.60;26.40;;;;;;5071808;28;20792;-73
2022/11/06 05:53:47;;;;;;;14.10;9.60;;;3.70;29.30;;;;;;5065492;28;20617;-73
2022/11/06 05:56:12;;;;;;;16.10;10.03;;;3.70;32.90;;;;;;5067934;28;20168;-73
2022/11/06 05:58:38;;;;;;;18.40;9.83;;;3.70;33.80;;;;;;5068625;28;20169;-73
2022/11/06 06:01:04;;;;;;;16.20;10.27;;;3.80;33.90;;;;;;5065530;28;20262;-73
2022/11/06 06:03:29;;;;;;;16.53;10.07;;;3.80;33.90;;;;;;5065297;28;20250;-73
2022/11/06 06:05:55;;;;;;;15.57;10.73;;;3.80;33.90;;;;;;5067116;28;20423;-73
2022/11/06 06:08:20;;;;;;;15.70;10.07;;;3.80;33.90;;;;;;5066169;28;20207;-73
2022/11/06 06:10:46;;;;;;;16.97;10.30;;;3.80;34.00;;;;;;5069272;28;20204;-73
2022/11/06 06:13:13;;;;;;;15.50;9.70;;;3.90;31.90;;;;;;5064968;28;20210;-73
2022/11/06 06:15:40;;;;;;;18.83;11.40;;;3.90;34.30;;;;;;5062913;28;20314;-73
2022/11/06 06:18:07;;;;;;;19.83;11.57;;;3.90;34.10;;;;;;5062813;28;20525;-73
2022/11/06 06:20:34;;;;;;;29.37;17.67;;;3.90;34.10;;;;;;5067823;28;20447;-73
2022/11/06 06:23:00;;;;;;;28.53;15.40;;;4.10;32.10;;;;;;5062421;28;20442;-74
2022/11/06 06:25:26;;;;;;;23.00;13.23;;;4.10;34.50;;;;;;5067155;28;20989;-73
2022/11/06 06:27:52;;;;;;;24.03;14.80;;;4.20;40.50;;;;;;5059604;28;20424;-77
2022/11/06 06:30:18;;;;;;;19.10;12.20;;;4.80;86.60;;;;;;5064858;28;20526;-76
2022/11/06 06:32:44;;;;;;;17.07;11.07;;;5.30;86.80;;;;;;5067512;28;20458;-76
2022/11/06 06:35:10;;;;;;;16.57;11.30;;;5.40;51.10;;;;;;5063208;28;20426;-78
2022/11/06 06:37:35;;;;;;;15.83;10.40;;;5.40;51.20;;;;;;5069308;28;20179;-76
2022/11/06 06:40:01;;;;;;;17.50;10.67;;;5.50;58.20;;;;;;5060198;28;20187;-76
2022/11/06 06:42:29;;;;;;;17.73;9.73;;;6.00;59.70;;;;;;5059101;28;20192;-75
2022/11/06 06:44:55;;;;;;;15.00;9.07;;;6.40;53.60;;;;;;5059248;28;20180;-76
2022/11/06 06:47:21;;;;;;;16.70;10.20;;;6.80;36.20;;;;;;5063570;28;20410;-77
2022/11/06 06:49:46;;;;;;;15.20;10.90;;;6.90;19.90;;;;;;5061984;28;20539;-76
2022/11/06 06:52:12;;;;;;;15.23;11.30;;;6.80;5.40;;;;;;5060719;28;20437;-76
2022/11/06 06:54:38;;;;;;;16.83;11.80;;;6.50;5.90;;;;;;5053273;28;20180;-74
2022/11/06 06:57:06;;;;;;;16.50;10.97;;;6.20;8.40;;;;;;5058445;28;20423;-77
2022/11/06 06:59:31;;;;;;;16.23;10.40;;;6.10;11.80;;;;;;5066008;28;21222;-75
2022/11/06 07:01:57;;;;;;;15.53;10.53;;;6.00;16.00;;;;;;5064245;28;20461;-75
2022/11/06 07:04:23;;;;;;;16.60;10.60;;;5.90;17.60;;;;;;5057690;28;20203;-76
2022/11/06 07:06:48;;;;;;;15.90;10.70;;;5.90;19.40;;;;;;5056929;28;20176;-75
2022/11/06 07:09:14;;;;;;;18.23;11.20;;;5.90;20.20;;;;;;5063155;28;20200;-75
2022/11/06 07:11:40;;;;;;;15.40;10.30;;;5.90;21.00;;;;;;5061522;28;20177;-76
2022/11/06 07:14:06;;;;;;;15.43;10.27;;;5.90;20.80;;;;;;5065335;28;20196;-76
2022/11/06 07:16:31;;;;;;;17.07;10.70;;;5.90;19.80;;;;;;5060777;28;20273;-76
2022/11/06 07:18:58;;;;;;;15.47;10.50;;;5.90;20.10;;;;;;5068456;28;20633;-76
2022/11/06 07:21:23;;;;;;;15.40;9.80;;;5.90;20.60;;;;;;5071394;28;20215;-76
2022/11/06 07:23:49;;;;;;;14.80;10.03;;;6.00;18.90;;;;;;5061279;28;21121;-73
2022/11/06 07:26:15;;;;;;;15.37;9.90;;;6.00;18.60;;;;;;5065541;28;20711;-76
2022/11/06 07:28:40;;;;;;;13.93;9.27;;;6.00;17.80;;;;;;5066800;28;20185;-76
2022/11/06 07:31:07;;;;;;;14.40;9.50;;;5.90;16.10;;;;;;5065345;28;20173;-76
2022/11/06 07:33:33;;;;;;;14.50;9.23;;;5.90;16.00;;;;;;5064023;28;20706;-76
2022/11/06 07:36:11;;;;;;;13.80;9.73;;;5.80;16.90;;;;;;5057032;28;20451;-75
2022/11/06 07:38:39;;;;;;;12.20;9.00;;;5.80;18.90;;;;;;5055611;28;20430;-76
2022/11/06 07:41:07;;;;;;;13.97;9.40;;;5.90;20.60;;;;;;5069307;28;20450;-75
2022/11/06 07:43:33;;;;;;;14.20;8.70;;;5.90;18.00;;;;;;5060274;28;20990;-76
2022/11/06 07:46:00;;;;;;;13.30;8.70;;;5.90;17.50;;;;;;5072089;28;20411;-76
2022/11/06 07:48:27;;;;;;;12.03;8.80;;;6.00;18.60;;;;;;5077247;28;20963;-76
2022/11/06 07:50:53;;;;;;;11.57;8.40;;;6.00;17.60;;;;;;5084369;28;20438;-74
2022/11/06 07:53:19;;;;;;;14.57;9.13;;;6.10;14.90;;;;;;5071478;28;20882;-76
2022/11/06 07:55:51;;;;;;;12.33;8.37;;;6.10;15.10;;;;;;5073073;28;20414;-76
2022/11/06 07:58:18;;;;;;;12.97;8.70;;;6.20;14.00;;;;;;5059034;28;20276;-76
2022/11/06 08:00:48;;;;;;;11.43;8.03;;;6.30;13.30;;;;;;5064488;28;20890;-76
2022/11/06 08:03:14;;;;;;;13.73;8.47;;;6.40;8.10;;;;;;5069719;28;20423;-76
2022/11/06 08:05:39;;;;;;;12.90;8.60;;;6.40;7.90;;;;;;5073068;28;20431;-76
2022/11/06 08:08:05;;;;;;;14.50;8.47;;;6.50;8.00;;;;;;5071936;28;20407;-76
2022/11/06 08:10:30;;;;;;;10.47;7.80;;;6.50;6.40;;;;;;5065746;28;20275;-76
2022/11/06 08:12:58;;;;;;;11.70;8.80;;;6.60;2.70;;;;;;5068960;28;20242;-76
2022/11/06 08:15:24;;;;;;;14.07;9.20;;;6.60;2.30;;;;;;5055395;28;20208;-76
2022/11/06 08:17:49;;;;;;;15.60;8.30;;;6.60;2.00;;;;;;5070253;28;20458;-77
2022/11/06 08:20:15;;;;;;;12.87;8.77;;;6.70;3.60;;;;;;5079523;28;20587;-75
2022/11/06 08:22:41;;;;;;;11.77;8.40;;;6.90;1.00;;;;;;5068193;28;20254;-76
2022/11/06 08:25:07;;;;;;;10.73;7.57;;;7.00;1.00;;;;;;5063535;28;20180;-76
2022/11/06 08:27:32;;;;;;;11.20;8.10;;;7.10;1.00;;;;;;5068594;28;20177;-76
2022/11/06 08:29:58;;;;;;;11.67;7.93;;;7.10;1.00;;;;;;5075826;28;20956;-76
2022/11/06 08:32:23;;;;;;;10.50;7.83;;;7.30;1.00;;;;;;5066185;28;20160;-76
2022/11/06 08:34:49;;;;;;;10.60;7.80;;;7.30;1.00;;;;;;5070487;28;20176;-76
2022/11/06 08:37:14;;;;;;;10.27;7.40;;;7.40;1.00;;;;;;5067370;28;20165;-76
2022/11/06 08:39:40;;;;;;;12.40;8.47;;;7.60;1.00;;;;;;5060157;28;20174;-76
2022/11/06 08:42:06;;;;;;;10.50;7.60;;;7.80;1.00;;;;;;5061800;28;20220;-76
2022/11/06 08:44:31;;;;;;;18.10;8.97;;;8.00;1.00;;;;;;5053688;28;20353;-75
2022/11/06 08:46:57;;;;;;;10.60;8.07;;;8.20;1.00;;;;;;5062734;28;20200;-75
2022/11/06 08:49:22;;;;;;;11.90;7.97;;;8.30;1.00;;;;;;5065256;28;20176;-75
2022/11/06 08:51:48;;;;;;;11.63;7.37;;;8.50;1.00;;;;;;5057716;28;20204;-75
2022/11/06 08:54:13;;;;;;;11.70;7.80;;;8.90;1.00;;;;;;5071106;28;20192;-75
2022/11/06 08:56:39;;;;;;;9.33;7.43;;;10.50;1.00;;;;;;5067262;28;20192;-76
2022/11/06 08:59:04;;;;;;;8.60;7.07;;;12.80;1.00;;;;;;5060006;28;20172;-76
2022/11/06 09:01:30;;;;;;;8.47;6.40;;;15.10;1.00;;;;;;5061029;28;20551;-75
2022/11/06 09:03:56;;;;;;;7.80;6.80;;;16.80;1.00;;;;;;5070883;28;20188;-75
2022/11/06 09:06:21;;;;;;;8.63;7.17;;;18.20;1.00;;;;;;5072183;28;20290;-76
2022/11/06 09:08:47;;;;;;;9.20;7.63;;;18.30;1.00;;;;;;5072292;28;20412;-76
2022/11/06 09:11:12;;;;;;;8.63;7.60;;;18.00;1.00;;;;;;5071690;28;20169;-76
2022/11/06 09:13:38;;;;;;;9.90;7.80;;;17.30;1.00;;;;;;5071899;28;20188;-76
2022/11/06 09:16:05;;;;;;;8.90;7.30;;;18.00;1.00;;;;;;5071646;28;20172;-76
2022/11/06 09:18:30;;;;;;;8.43;7.53;;;18.40;1.00;;;;;;5079160;28;20178;-75
2022/11/06 09:20:57;;;;;;;9.67;7.23;;;18.80;1.00;;;;;;5083606;28;20450;-75
2022/11/06 09:23:23;;;;;;;8.43;6.90;;;18.80;1.00;;;;;;5054008;28;20671;-76
2022/11/06 09:25:48;;;;;;;8.37;7.33;;;18.60;1.00;;;;;;5053641;28;20420;-75
2022/11/06 09:28:14;;;;;;;9.70;7.10;;;19.10;1.00;;;;;;5071067;28;20426;-75
2022/11/06 09:30:40;;;;;;;7.83;6.63;;;20.10;1.00;;;;;;5071277;28;20176;-76
2022/11/06 09:33:05;;;;;;;8.43;6.70;;;21.10;1.00;;;;;;5070576;28;20590;-76
2022/11/06 09:35:33;;;;;;;12.17;6.70;;;21.70;1.00;;;;;;5071880;28;20172;-76
2022/11/06 09:38:07;;;;;;;9.07;6.33;;;22.40;1.00;;;;;;5071675;28;20175;-76
2022/11/06 09:40:47;;;;;;;8.20;6.90;;;22.80;1.00;;;;;;5071165;28;20459;-76
2022/11/06 09:43:32;;;;;;;9.00;6.90;;;22.40;1.00;;;;;;5066927;28;20457;-76
2022/11/06 09:46:05;;;;;;;8.87;6.70;;;22.00;1.00;;;;;;5051663;28;20395;-76
2022/11/06 09:48:36;;;;;;;8.87;6.83;;;21.90;1.00;;;;;;5071537;28;20405;-76
2022/11/06 09:51:18;;;;;;;8.50;6.37;;;21.70;1.00;;;;;;5074899;28;20482;-75
2022/11/06 09:53:54;;;;;;;11.40;7.03;;;21.10;1.00;;;;;;5091541;28;20417;-76
2022/11/06 09:56:24;;;;;;;9.77;7.53;;;20.50;1.00;;;;;;5086788;28;20406;-76
2022/11/06 09:58:51;;;;;;;8.87;7.50;;;20.40;1.00;;;;;;5059238;28;20410;-75
2022/11/06 10:01:33;;;;;;;9.73;7.50;;;21.00;1.00;;;;;;5069349;28;20458;-75
2022/11/06 10:04:00;;;;;;;9.10;7.60;;;21.80;1.00;;;;;;5070710;28;20939;-76
2022/11/06 10:06:27;;;;;;;11.00;7.83;;;22.60;1.00;;;;;;5070780;28;20415;-76
2022/11/06 10:08:58;;;;;;;10.17;7.97;;;22.70;1.00;;;;;;5071224;28;20406;-76
2022/11/06 10:12:06;;;;;;;10.20;7.93;;;21.90;1.00;;;;;;5070283;28;20877;-75
2022/11/06 10:14:40;;;;;;;9.87;8.10;;;20.90;1.00;;;;;;5068109;28;20422;-76
2022/11/06 10:17:23;;;;;;;8.70;7.70;;;20.40;1.00;;;;;;5071004;28;20460;-76
2022/11/06 10:20:05;;;;;;;13.97;8.47;;;20.60;1.00;;;;;;5071212;28;20420;-76
2022/11/06 10:22:50;;;;;;;8.30;7.17;;;20.30;1.00;;;;;;5051118;28;20466;-76
2022/11/06 10:25:44;;;;;;;12.30;7.53;;;19.60;1.00;;;;;;5051071;28;20482;-76
2022/11/06 10:28:25;;;;;;;8.80;6.80;;;18.10;1.00;;;;;;5050646;28;20455;-76
2022/11/06 10:31:08;;;;;;;12.83;8.10;;;17.60;1.00;;;;;;5050973;28;20403;-76
2022/11/06 10:34:00;;;;;;;11.13;9.10;;;17.80;1.00;;;;;;5063267;28;20467;-76
2022/11/06 10:36:42;;;;;;;11.63;8.27;;;18.30;1.00;;;;;;5071053;28;20785;-76
2022/11/06 10:39:17;;;;;;;11.00;8.00;;;18.60;1.00;;;;;;5067622;28;20774;-75
2022/11/06 10:41:49;;;;;;;10.30;8.07;;;18.40;1.00;;;;;;5069981;28;20543;-76
2022/11/06 10:44:37;;;;;;;9.67;8.10;;;18.60;1.00;;;;;;5070738;28;20426;-76
2022/11/06 10:47:21;;;;;;;10.17;8.60;;;19.20;1.00;;;;;;5068006;28;20403;-75
2022/11/06 10:49:49;;;;;;;10.30;7.97;;;19.10;1.00;;;;;;5066153;28;20441;-76
2022/11/06 10:52:36;;;;;;;9.43;7.57;;;19.00;1.00;;;;;;5059450;28;20522;-76
2022/11/06 10:55:29;;;;;;;8.67;7.73;;;19.10;1.00;;;;;;5063675;28;20441;-76
2022/11/06 10:58:01;;;;;;;8.97;7.43;;;19.30;1.00;;;;;;5058254;28;20412;-76
2022/11/06 11:00:27;;;;;;;8.93;7.37;;;19.30;1.00;;;;;;5052951;28;21008;-76
2022/11/06 11:02:55;;;;;;;9.70;7.87;;;20.50;1.00;;;;;;5068505;28;20434;-75
2022/11/06 11:05:24;;;;;;;8.27;6.63;;;21.30;1.00;;;;;;5061975;28;20896;-76
2022/11/06 11:07:50;;;;;;;10.63;7.40;;;21.70;1.00;;;;;;5069127;28;20407;-75
2022/11/06 11:10:28;;;;;;;8.67;6.63;;;21.70;1.00;;;;;;5066924;28;20913;-75
2022/11/06 11:12:56;;;;;;;6.93;5.60;;;21.30;1.00;;;;;;5062778;28;20279;-76
2022/11/06 11:15:24;;;;;;;9.27;6.43;;;21.60;1.00;;;;;;5055837;28;20464;-75
2022/11/06 11:18:16;;;;;;;8.57;6.47;;;22.00;1.00;;;;;;5068802;28;20414;-75
2022/11/06 11:20:47;;;;;;;7.90;6.63;;;22.50;1.00;;;;;;5060355;28;20465;-75
2022/11/06 11:23:17;;;;;;;6.60;5.80;;;22.90;1.00;;;;;;5073249;28;20430;-76
2022/11/06 11:25:46;;;;;;;8.37;6.00;;;23.40;1.00;;;;;;5062754;28;20431;-75
2022/11/06 11:28:23;;;;;;;7.30;6.13;;;24.40;1.00;;;;;;5064650;28;20414;-75
2022/11/06 11:30:54;;;;;;;7.57;6.27;;;25.30;1.00;;;;;;5071445;28;20924;-76
2022/11/06 11:33:23;;;;;;;7.83;6.20;;;24.20;1.00;;;;;;5068189;28;20528;-75
2022/11/06 11:35:50;;;;;;;6.90;5.90;;;24.40;1.00;;;;;;5057172;28;20474;-76
2022/11/06 11:38:17;;;;;;;6.63;5.63;;;25.10;1.00;;;;;;5066827;28;20429;-75
2022/11/06 11:40:43;;;;;;;6.80;5.57;;;25.20;1.00;;;;;;5065387;28;20447;-76
2022/11/06 11:43:18;;;;;;;7.33;5.33;;;25.30;1.00;;;;;;5070518;28;20434;-76
2022/11/06 11:46:04;;;;;;;7.53;5.53;;;25.00;1.00;;;;;;5067871;28;20183;-76
2022/11/06 11:48:54;;;;;;;6.93;5.50;;;24.70;1.00;;;;;;5069586;28;20483;-75
2022/11/06 11:51:30;;;;;;;8.80;5.70;;;25.00;1.00;;;;;;5074881;28;20575;-76
2022/11/06 11:54:20;;;;;;;6.10;5.23;;;25.00;1.00;;;;;;5063569;28;20449;-76
2022/11/06 11:56:58;;;;;;;7.17;5.50;;;24.70;1.00;;;;;;5067872;28;20552;-75
2022/11/06 11:59:28;;;;;;;6.33;5.37;;;24.10;1.00;;;;;;5068087;28;20426;-75
2022/11/06 12:01:58;;;;;;;7.40;5.97;;;23.40;1.00;;;;;;5068527;28;20459;-76
2022/11/06 12:04:38;;;;;;;8.30;5.83;;;22.20;1.00;;;;;;5056665;28;20445;-75
2022/11/06 12:07:11;;;;;;;8.00;6.10;;;22.40;1.00;;;;;;5066185;28;20487;-75
2022/11/06 12:09:43;;;;;;;6.60;5.90;;;24.20;1.00;;;;;;5063185;28;20480;-76
2022/11/06 12:12:32;;;;;;;8.37;5.87;;;24.80;1.00;;;;;;5067468;28;20437;-75
2022/11/06 12:15:18;;;;;;;7.47;5.90;;;23.40;1.00;;;;;;5064052;28;20521;-76
2022/11/06 12:17:51;;;;;;;8.37;6.37;;;22.30;1.00;;;;;;5070808;28;20509;-75
2022/11/06 12:20:23;;;;;;;7.90;6.10;;;20.50;1.00;;;;;;5076095;28;20430;-75
2022/11/06 12:22:52;;;;;;;7.17;5.80;;;19.40;1.00;;;;;;5071738;28;20454;-75
2022/11/06 12:25:34;;;;;;;7.70;6.70;;;18.70;1.00;;;;;;5063616;28;20463;-76
2022/11/06 12:28:01;;;;;;;9.50;6.57;;;17.70;1.00;;;;;;5067555;28;20831;-76
2022/11/06 12:30:29;;;;;;;8.03;6.50;;;16.80;1.00;;;;;;5073095;28;20434;-76
2022/11/06 12:33:16;;;;;;;6.90;5.87;;;16.00;1.00;;;;;;5069950;28;20493;-76
2022/11/06 12:35:49;;;;;;;6.87;5.47;;;15.60;1.00;;;;;;5063697;28;20505;-76
2022/11/06 12:38:23;;;;;;;8.70;5.27;;;15.30;1.00;;;;;;5071694;28;20830;-75
2022/11/06 12:41:03;;;;;;;7.20;5.50;;;14.90;1.00;;;;;;5062108;28;20542;-75
2022/11/06 12:43:46;;;;;;;5.70;4.73;;;14.70;1.00;;;;;;5071279;28;20442;-76
2022/11/06 12:46:37;;;;;;;7.20;5.40;;;14.50;1.00;;;;;;5071724;28;20423;-76
2022/11/06 12:49:29;;;;;;;9.83;6.80;;;14.40;1.00;;;;;;5075464;28;22043;-76
2022/11/06 12:52:27;;;;;;;6.70;5.50;;;15.00;1.00;;;;;;5062965;28;20430;-76
2022/11/06 12:55:11;;;;;;;7.30;5.63;;;15.30;1.00;;;;;;5071683;28;20461;-76
2022/11/06 12:57:53;;;;;;;5.50;4.90;;;15.20;1.00;;;;;;5070556;28;21039;-76
2022/11/06 13:00:21;;;;;;;6.50;4.87;;;15.00;1.00;;;;;;5067454;28;20423;-76
2022/11/06 13:02:58;;;;;;;6.43;5.50;;;14.60;1.00;;;;;;5068880;28;20492;-76
2022/11/06 13:05:50;;;;;;;7.33;5.30;;;14.30;1.00;;;;;;5069426;28;20433;-76
2022/11/06 13:08:46;;;;;;;5.87;4.97;;;14.10;1.00;;;;;;5051303;28;20447;-75
2022/11/06 13:11:33;;;;;;;6.13;5.17;;;14.10;1.00;;;;;;5066013;28;20442;-75
2022/11/06 13:14:23;;;;;;;5.53;4.83;;;13.90;1.00;;;;;;5066613;28;20440;-76
2022/11/06 13:17:04;;;;;;;7.30;5.33;;;13.80;1.00;;;;;;5063975;28;20432;-76
2022/11/06 13:19:47;;;;;;;11.20;5.30;;;13.70;1.00;;;;;;5066185;28;20513;-76
2022/11/06 13:22:48;;;;;;;6.90;5.40;;;13.60;1.00;;;;;;5051554;28;20565;-75
2022/11/06 13:25:23;;;;;;;7.23;4.73;;;13.40;1.00;;;;;;5061371;28;20402;-76